sensor_id;sensor_type;location;lat;lon;timestamp;P1;durP1;ratioP1;P2;durP2;ratioP2
9773;SDS011;4926;42.670;23.316;2023-02-28T00:00:26;26.80;;;16.42;;
9773;SDS011;4926;42.670;23.316;2023-02-28T00:02:53;25.50;;;17.17;;
9773;SDS011;4926;42.670;23.316;2023-02-28T00:05:21;25.63;;;16.90;;
9773;SDS011;4926;42.670;23.316;2023-02-28T00:07:49;27.48;;;18.67;;
9773;SDS011;4926;42.670;23.316;2023-02-28T00:12:47;29.05;;;17.50;;
9773;SDS011;4926;42.670;23.316;2023-02-28T00:15:17;25.58;;;16.23;;
9773;SDS011;4926;42.670;23.316;2023-02-28T00:17:44;23.70;;;16.38;;
9773;SDS011;4926;42.670;23.316;2023-02-28T00:20:11;23.65;;;16.60;;
9773;SDS011;4926;42.670;23.316;2023-02-28T00:22:40;26.75;;;16.88;;
9773;SDS011;4926;42.670;23.316;2023-02-28T00:25:11;22.92;;;15.80;;
9773;SDS011;4926;42.670;23.316;2023-02-28T00:27:40;23.80;;;15.30;;
9773;SDS011;4926;42.670;23.316;2023-02-28T00:30:10;23.08;;;15.23;;
9773;SDS011;4926;42.670;23.316;2023-02-28T00:32:38;24.05;;;15.65;;
9773;SDS011;4926;42.670;23.316;2023-02-28T00:35:06;26.20;;;15.77;;
9773;SDS011;4926;42.670;23.316;2023-02-28T00:37:33;24.50;;;14.90;;
9773;SDS011;4926;42.670;23.316;2023-02-28T00:40:00;20.10;;;14.32;;
9773;SDS011;4926;42.670;23.316;2023-02-28T00:42:30;22.08;;;15.10;;
9773;SDS011;4926;42.670;23.316;2023-02-28T00:45:01;25.42;;;15.27;;
9773;SDS011;4926;42.670;23.316;2023-02-28T00:47:31;19.33;;;13.55;;
9773;SDS011;4926;42.670;23.316;2023-02-28T00:49:58;22.15;;;14.73;;
9773;SDS011;4926;42.670;23.316;2023-02-28T00:52:25;24.15;;;15.50;;
9773;SDS011;4926;42.670;23.316;2023-02-28T00:54:54;21.02;;;15.82;;
9773;SDS011;4926;42.670;23.316;2023-02-28T00:57:25;23.65;;;16.25;;
9773;SDS011;4926;42.670;23.316;2023-02-28T00:59:52;22.35;;;15.38;;
9773;SDS011;4926;42.670;23.316;2023-02-28T01:02:20;21.92;;;14.82;;
9773;SDS011;4926;42.670;23.316;2023-02-28T01:04:48;22.40;;;15.25;;
9773;SDS011;4926;42.670;23.316;2023-02-28T01:07:15;25.63;;;15.73;;
9773;SDS011;4926;42.670;23.316;2023-02-28T01:09:42;25.05;;;16.58;;
9773;SDS011;4926;42.670;23.316;2023-02-28T01:12:09;22.08;;;16.27;;
9773;SDS011;4926;42.670;23.316;2023-02-28T01:14:37;21.95;;;14.52;;
9773;SDS011;4926;42.670;23.316;2023-02-28T01:17:04;23.48;;;15.40;;
9773;SDS011;4926;42.670;23.316;2023-02-28T01:19:31;24.70;;;16.17;;
9773;SDS011;4926;42.670;23.316;2023-02-28T01:22:01;22.75;;;16.88;;
9773;SDS011;4926;42.670;23.316;2023-02-28T01:24:29;24.60;;;16.27;;
9773;SDS011;4926;42.670;23.316;2023-02-28T01:27:00;26.15;;;17.02;;
9773;SDS011;4926;42.670;23.316;2023-02-28T01:29:26;24.77;;;17.20;;
9773;SDS011;4926;42.670;23.316;2023-02-28T01:31:53;27.38;;;17.33;;
9773;SDS011;4926;42.670;23.316;2023-02-28T01:34:25;25.33;;;18.10;;
9773;SDS011;4926;42.670;23.316;2023-02-28T01:36:52;29.13;;;18.58;;
9773;SDS011;4926;42.670;23.316;2023-02-28T01:39:20;27.75;;;17.65;;
9773;SDS011;4926;42.670;23.316;2023-02-28T01:41:47;27.20;;;18.70;;
9773;SDS011;4926;42.670;23.316;2023-02-28T01:47:17;27.17;;;19.40;;
9773;SDS011;4926;42.670;23.316;2023-02-28T01:49:44;28.00;;;18.67;;
9773;SDS011;4926;42.670;23.316;2023-02-28T01:52:15;29.92;;;20.58;;
9773;SDS011;4926;42.670;23.316;2023-02-28T01:54:47;30.63;;;20.92;;
9773;SDS011;4926;42.670;23.316;2023-02-28T01:57:21;30.83;;;20.88;;
9773;SDS011;4926;42.670;23.316;2023-02-28T01:59:52;30.25;;;19.25;;
9773;SDS011;4926;42.670;23.316;2023-02-28T02:02:27;28.33;;;19.60;;
9773;SDS011;4926;42.670;23.316;2023-02-28T02:05:00;26.95;;;19.13;;
9773;SDS011;4926;42.670;23.316;2023-02-28T02:07:35;27.75;;;18.65;;
9773;SDS011;4926;42.670;23.316;2023-02-28T02:10:10;26.95;;;18.42;;
9773;SDS011;4926;42.670;23.316;2023-02-28T02:13:00;27.48;;;18.55;;
9773;SDS011;4926;42.670;23.316;2023-02-28T02:15:38;26.75;;;19.15;;
9773;SDS011;4926;42.670;23.316;2023-02-28T02:18:11;29.95;;;19.50;;
9773;SDS011;4926;42.670;23.316;2023-02-28T02:27:36;27.30;;;18.45;;
9773;SDS011;4926;42.670;23.316;2023-02-28T02:33:31;28.02;;;19.60;;
9773;SDS011;4926;42.670;23.316;2023-02-28T02:36:19;34.95;;;21.33;;
9773;SDS011;4926;42.670;23.316;2023-02-28T02:38:51;31.20;;;20.27;;
9773;SDS011;4926;42.670;23.316;2023-02-28T02:41:26;30.10;;;20.88;;
9773;SDS011;4926;42.670;23.316;2023-02-28T02:44:02;31.83;;;21.65;;
9773;SDS011;4926;42.670;23.316;2023-02-28T02:46:33;35.25;;;22.23;;
9773;SDS011;4926;42.670;23.316;2023-02-28T02:49:09;35.70;;;22.92;;
9773;SDS011;4926;42.670;23.316;2023-02-28T02:51:43;43.55;;;24.65;;
9773;SDS011;4926;42.670;23.316;2023-02-28T02:54:17;45.97;;;24.45;;
9773;SDS011;4926;42.670;23.316;2023-02-28T02:56:50;42.40;;;25.02;;
9773;SDS011;4926;42.670;23.316;2023-02-28T02:59:18;42.90;;;25.17;;
9773;SDS011;4926;42.670;23.316;2023-02-28T03:01:49;41.67;;;23.52;;
9773;SDS011;4926;42.670;23.316;2023-02-28T03:04:19;42.85;;;24.05;;
9773;SDS011;4926;42.670;23.316;2023-02-28T03:06:49;44.65;;;25.88;;
9773;SDS011;4926;42.670;23.316;2023-02-28T03:09:19;48.75;;;26.80;;
9773;SDS011;4926;42.670;23.316;2023-02-28T03:11:46;55.00;;;26.55;;
9773;SDS011;4926;42.670;23.316;2023-02-28T03:14:18;46.05;;;26.70;;
9773;SDS011;4926;42.670;23.316;2023-02-28T03:17:01;50.08;;;25.30;;
9773;SDS011;4926;42.670;23.316;2023-02-28T03:19:47;48.83;;;27.35;;
9773;SDS011;4926;42.670;23.316;2023-02-28T03:22:34;45.22;;;26.02;;
9773;SDS011;4926;42.670;23.316;2023-02-28T03:25:20;62.70;;;26.98;;
9773;SDS011;4926;42.670;23.316;2023-02-28T03:27:55;48.20;;;26.13;;
9773;SDS011;4926;42.670;23.316;2023-02-28T03:30:31;51.22;;;26.25;;
9773;SDS011;4926;42.670;23.316;2023-02-28T03:33:05;51.03;;;26.63;;
9773;SDS011;4926;42.670;23.316;2023-02-28T03:35:36;43.13;;;25.92;;
9773;SDS011;4926;42.670;23.316;2023-02-28T03:38:08;48.92;;;25.60;;
9773;SDS011;4926;42.670;23.316;2023-02-28T03:40:41;44.63;;;25.98;;
9773;SDS011;4926;42.670;23.316;2023-02-28T03:43:13;48.38;;;26.27;;
9773;SDS011;4926;42.670;23.316;2023-02-28T03:45:46;44.28;;;25.50;;
9773;SDS011;4926;42.670;23.316;2023-02-28T03:48:17;45.97;;;25.92;;
9773;SDS011;4926;42.670;23.316;2023-02-28T03:50:48;42.40;;;24.90;;
9773;SDS011;4926;42.670;23.316;2023-02-28T03:53:36;42.45;;;25.63;;
9773;SDS011;4926;42.670;23.316;2023-02-28T03:56:08;45.60;;;26.27;;
9773;SDS011;4926;42.670;23.316;2023-02-28T03:58:41;40.08;;;24.25;;
9773;SDS011;4926;42.670;23.316;2023-02-28T04:01:15;38.70;;;23.92;;
9773;SDS011;4926;42.670;23.316;2023-02-28T04:03:47;40.83;;;24.58;;
9773;SDS011;4926;42.670;23.316;2023-02-28T04:06:15;34.65;;;22.08;;
9773;SDS011;4926;42.670;23.316;2023-02-28T04:08:46;39.53;;;23.73;;
9773;SDS011;4926;42.670;23.316;2023-02-28T04:11:18;36.50;;;24.20;;
9773;SDS011;4926;42.670;23.316;2023-02-28T04:13:48;38.35;;;24.70;;
9773;SDS011;4926;42.670;23.316;2023-02-28T04:16:15;43.03;;;25.42;;
9773;SDS011;4926;42.670;23.316;2023-02-28T04:18:42;43.20;;;24.38;;
9773;SDS011;4926;42.670;23.316;2023-02-28T04:21:09;62.22;;;25.85;;
9773;SDS011;4926;42.670;23.316;2023-02-28T04:23:39;40.85;;;24.48;;
9773;SDS011;4926;42.670;23.316;2023-02-28T04:26:07;45.70;;;25.13;;
9773;SDS011;4926;42.670;23.316;2023-02-28T04:28:34;51.40;;;27.85;;
9773;SDS011;4926;42.670;23.316;2023-02-28T04:31:03;45.42;;;25.85;;
9773;SDS011;4926;42.670;23.316;2023-02-28T04:33:33;68.80;;;21.90;;
9773;SDS011;4926;42.670;23.316;2023-02-28T04:36:00;42.60;;;21.60;;
9773;SDS011;4926;42.670;23.316;2023-02-28T04:38:29;42.03;;;22.00;;
9773;SDS011;4926;42.670;23.316;2023-02-28T04:40:56;71.45;;;23.17;;
9773;SDS011;4926;42.670;23.316;2023-02-28T04:43:27;40.88;;;23.17;;
9773;SDS011;4926;42.670;23.316;2023-02-28T04:45:54;59.85;;;21.80;;
9773;SDS011;4926;42.670;23.316;2023-02-28T04:48:23;57.20;;;23.67;;
9773;SDS011;4926;42.670;23.316;2023-02-28T04:50:50;49.58;;;22.50;;
9773;SDS011;4926;42.670;23.316;2023-02-28T04:53:17;79.45;;;28.40;;
9773;SDS011;4926;42.670;23.316;2023-02-28T04:55:44;48.47;;;24.30;;
9773;SDS011;4926;42.670;23.316;2023-02-28T04:58:12;48.72;;;23.30;;
9773;SDS011;4926;42.670;23.316;2023-02-28T05:00:41;43.90;;;24.58;;
9773;SDS011;4926;42.670;23.316;2023-02-28T05:03:08;41.80;;;22.80;;
9773;SDS011;4926;42.670;23.316;2023-02-28T05:05:35;50.22;;;23.88;;
9773;SDS011;4926;42.670;23.316;2023-02-28T05:08:03;47.13;;;24.23;;
9773;SDS011;4926;42.670;23.316;2023-02-28T05:10:34;48.58;;;24.15;;
9773;SDS011;4926;42.670;23.316;2023-02-28T05:13:05;48.17;;;25.27;;
9773;SDS011;4926;42.670;23.316;2023-02-28T05:15:35;46.72;;;25.33;;
9773;SDS011;4926;42.670;23.316;2023-02-28T05:18:03;39.75;;;23.90;;
9773;SDS011;4926;42.670;23.316;2023-02-28T05:20:30;48.85;;;26.27;;
9773;SDS011;4926;42.670;23.316;2023-02-28T05:23:02;44.20;;;23.77;;
9773;SDS011;4926;42.670;23.316;2023-02-28T05:25:29;45.05;;;25.48;;
9773;SDS011;4926;42.670;23.316;2023-02-28T05:28:05;43.53;;;24.13;;
9773;SDS011;4926;42.670;23.316;2023-02-28T05:30:33;46.88;;;25.02;;
9773;SDS011;4926;42.670;23.316;2023-02-28T05:33:00;43.90;;;25.42;;
9773;SDS011;4926;42.670;23.316;2023-02-28T05:35:30;41.00;;;24.63;;
9773;SDS011;4926;42.670;23.316;2023-02-28T05:37:57;42.17;;;25.60;;
9773;SDS011;4926;42.670;23.316;2023-02-28T05:40:24;40.72;;;22.90;;
9773;SDS011;4926;42.670;23.316;2023-02-28T05:42:54;39.97;;;23.85;;
9773;SDS011;4926;42.670;23.316;2023-02-28T05:45:23;39.40;;;23.77;;
9773;SDS011;4926;42.670;23.316;2023-02-28T05:47:52;40.67;;;23.33;;
9773;SDS011;4926;42.670;23.316;2023-02-28T05:50:22;41.03;;;23.83;;
9773;SDS011;4926;42.670;23.316;2023-02-28T05:52:50;45.15;;;26.05;;
9773;SDS011;4926;42.670;23.316;2023-02-28T05:55:18;40.38;;;23.67;;
9773;SDS011;4926;42.670;23.316;2023-02-28T05:57:45;43.88;;;24.58;;
9773;SDS011;4926;42.670;23.316;2023-02-28T06:00:12;42.15;;;24.55;;
9773;SDS011;4926;42.670;23.316;2023-02-28T06:02:43;44.47;;;25.70;;
9773;SDS011;4926;42.670;23.316;2023-02-28T06:05:13;44.88;;;25.27;;
9773;SDS011;4926;42.670;23.316;2023-02-28T06:07:40;45.03;;;26.55;;
9773;SDS011;4926;42.670;23.316;2023-02-28T06:10:09;51.88;;;26.63;;
9773;SDS011;4926;42.670;23.316;2023-02-28T06:12:37;45.28;;;25.15;;
9773;SDS011;4926;42.670;23.316;2023-02-28T06:15:09;47.95;;;26.85;;
9773;SDS011;4926;42.670;23.316;2023-02-28T06:17:39;46.88;;;27.42;;
9773;SDS011;4926;42.670;23.316;2023-02-28T06:20:06;47.20;;;26.50;;
9773;SDS011;4926;42.670;23.316;2023-02-28T06:22:34;53.88;;;28.25;;
9773;SDS011;4926;42.670;23.316;2023-02-28T06:25:01;51.70;;;27.67;;
9773;SDS011;4926;42.670;23.316;2023-02-28T06:27:29;49.00;;;28.58;;
9773;SDS011;4926;42.670;23.316;2023-02-28T06:29:56;64.50;;;34.05;;
9773;SDS011;4926;42.670;23.316;2023-02-28T06:32:28;52.83;;;28.98;;
9773;SDS011;4926;42.670;23.316;2023-02-28T06:34:55;54.10;;;29.00;;
9773;SDS011;4926;42.670;23.316;2023-02-28T06:37:23;48.08;;;27.45;;
9773;SDS011;4926;42.670;23.316;2023-02-28T06:39:53;48.60;;;28.10;;
9773;SDS011;4926;42.670;23.316;2023-02-28T06:42:21;50.38;;;28.52;;
9773;SDS011;4926;42.670;23.316;2023-02-28T06:44:51;44.15;;;27.40;;
9773;SDS011;4926;42.670;23.316;2023-02-28T06:47:19;44.75;;;26.48;;
9773;SDS011;4926;42.670;23.316;2023-02-28T06:49:46;44.75;;;26.88;;
9773;SDS011;4926;42.670;23.316;2023-02-28T06:52:14;45.22;;;26.80;;
9773;SDS011;4926;42.670;23.316;2023-02-28T06:54:40;44.13;;;27.05;;
9773;SDS011;4926;42.670;23.316;2023-02-28T06:57:07;46.10;;;27.55;;
9773;SDS011;4926;42.670;23.316;2023-02-28T06:59:37;46.63;;;28.08;;
9773;SDS011;4926;42.670;23.316;2023-02-28T07:02:05;42.17;;;27.13;;
9773;SDS011;4926;42.670;23.316;2023-02-28T07:04:32;46.20;;;27.70;;
9773;SDS011;4926;42.670;23.316;2023-02-28T07:07:02;42.42;;;26.90;;
9773;SDS011;4926;42.670;23.316;2023-02-28T07:09:28;44.05;;;27.65;;
9773;SDS011;4926;42.670;23.316;2023-02-28T07:11:57;42.30;;;27.05;;
9773;SDS011;4926;42.670;23.316;2023-02-28T07:14:25;48.90;;;27.00;;
9773;SDS011;4926;42.670;23.316;2023-02-28T07:16:52;41.80;;;25.67;;
9773;SDS011;4926;42.670;23.316;2023-02-28T07:19:20;42.45;;;26.38;;
9773;SDS011;4926;42.670;23.316;2023-02-28T07:21:47;40.25;;;24.77;;
9773;SDS011;4926;42.670;23.316;2023-02-28T07:24:14;39.92;;;25.58;;
9773;SDS011;4926;42.670;23.316;2023-02-28T07:26:43;40.22;;;25.52;;
9773;SDS011;4926;42.670;23.316;2023-02-28T07:29:14;43.33;;;25.92;;
9773;SDS011;4926;42.670;23.316;2023-02-28T07:31:41;41.00;;;26.55;;
9773;SDS011;4926;42.670;23.316;2023-02-28T07:34:08;38.88;;;26.10;;
9773;SDS011;4926;42.670;23.316;2023-02-28T07:36:36;44.90;;;26.90;;
9773;SDS011;4926;42.670;23.316;2023-02-28T07:39:03;51.63;;;28.63;;
9773;SDS011;4926;42.670;23.316;2023-02-28T07:41:48;39.78;;;26.35;;
9773;SDS011;4926;42.670;23.316;2023-02-28T07:44:15;44.85;;;27.38;;
9773;SDS011;4926;42.670;23.316;2023-02-28T07:46:42;41.40;;;25.48;;
9773;SDS011;4926;42.670;23.316;2023-02-28T07:49:09;46.22;;;28.00;;
9773;SDS011;4926;42.670;23.316;2023-02-28T07:51:37;46.88;;;25.25;;
9773;SDS011;4926;42.670;23.316;2023-02-28T07:54:06;44.85;;;27.98;;
9773;SDS011;4926;42.670;23.316;2023-02-28T07:56:33;41.03;;;25.77;;
9773;SDS011;4926;42.670;23.316;2023-02-28T07:59:00;38.67;;;26.08;;
9773;SDS011;4926;42.670;23.316;2023-02-28T08:01:28;40.55;;;25.42;;
9773;SDS011;4926;42.670;23.316;2023-02-28T08:03:55;48.42;;;27.40;;
9773;SDS011;4926;42.670;23.316;2023-02-28T08:06:22;45.38;;;27.48;;
9773;SDS011;4926;42.670;23.316;2023-02-28T08:08:52;40.47;;;26.38;;
9773;SDS011;4926;42.670;23.316;2023-02-28T08:11:21;41.17;;;25.85;;
9773;SDS011;4926;42.670;23.316;2023-02-28T08:13:48;41.42;;;27.13;;
9773;SDS011;4926;42.670;23.316;2023-02-28T08:16:17;39.80;;;26.20;;
9773;SDS011;4926;42.670;23.316;2023-02-28T08:18:47;41.65;;;28.33;;
9773;SDS011;4926;42.670;23.316;2023-02-28T08:21:14;39.33;;;26.05;;
9773;SDS011;4926;42.670;23.316;2023-02-28T08:23:41;47.30;;;27.88;;
9773;SDS011;4926;42.670;23.316;2023-02-28T08:26:09;37.83;;;25.15;;
9773;SDS011;4926;42.670;23.316;2023-02-28T08:28:36;41.60;;;25.17;;
9773;SDS011;4926;42.670;23.316;2023-02-28T08:31:06;42.00;;;26.17;;
9773;SDS011;4926;42.670;23.316;2023-02-28T08:33:34;43.35;;;24.85;;
9773;SDS011;4926;42.670;23.316;2023-02-28T08:36:06;38.42;;;23.88;;
9773;SDS011;4926;42.670;23.316;2023-02-28T08:38:33;38.78;;;24.52;;
9773;SDS011;4926;42.670;23.316;2023-02-28T08:41:07;36.22;;;25.10;;
9773;SDS011;4926;42.670;23.316;2023-02-28T08:43:36;40.10;;;25.63;;
9773;SDS011;4926;42.670;23.316;2023-02-28T08:46:03;39.42;;;25.17;;
9773;SDS011;4926;42.670;23.316;2023-02-28T08:48:31;37.40;;;24.65;;
9773;SDS011;4926;42.670;23.316;2023-02-28T08:51:01;36.92;;;24.33;;
9773;SDS011;4926;42.670;23.316;2023-02-28T08:53:40;36.80;;;25.42;;
9773;SDS011;4926;42.670;23.316;2023-02-28T08:56:09;35.28;;;25.48;;
9773;SDS011;4926;42.670;23.316;2023-02-28T08:58:37;44.28;;;25.88;;
9773;SDS011;4926;42.670;23.316;2023-02-28T09:01:07;42.03;;;26.50;;
9773;SDS011;4926;42.670;23.316;2023-02-28T09:03:38;38.38;;;25.08;;
9773;SDS011;4926;42.670;23.316;2023-02-28T09:06:05;55.58;;;32.92;;
9773;SDS011;4926;42.670;23.316;2023-02-28T09:08:36;54.17;;;33.35;;
9773;SDS011;4926;42.670;23.316;2023-02-28T09:11:08;56.55;;;33.40;;
9773;SDS011;4926;42.670;23.316;2023-02-28T09:13:37;53.38;;;33.10;;
9773;SDS011;4926;42.670;23.316;2023-02-28T09:16:05;54.45;;;31.55;;
9773;SDS011;4926;42.670;23.316;2023-02-28T09:18:34;54.50;;;33.45;;
9773;SDS011;4926;42.670;23.316;2023-02-28T09:21:03;59.72;;;33.53;;
9773;SDS011;4926;42.670;23.316;2023-02-28T09:23:30;63.38;;;35.28;;
9773;SDS011;4926;42.670;23.316;2023-02-28T09:26:00;58.13;;;34.30;;
9773;SDS011;4926;42.670;23.316;2023-02-28T09:28:28;53.10;;;34.15;;
9773;SDS011;4926;42.670;23.316;2023-02-28T09:30:55;57.30;;;35.22;;
9773;SDS011;4926;42.670;23.316;2023-02-28T09:33:23;63.00;;;35.92;;
9773;SDS011;4926;42.670;23.316;2023-02-28T09:35:50;63.83;;;34.90;;
9773;SDS011;4926;42.670;23.316;2023-02-28T09:38:23;63.95;;;35.78;;
9773;SDS011;4926;42.670;23.316;2023-02-28T09:40:50;59.17;;;36.15;;
9773;SDS011;4926;42.670;23.316;2023-02-28T09:43:31;63.42;;;37.28;;
9773;SDS011;4926;42.670;23.316;2023-02-28T09:46:02;60.53;;;35.25;;
9773;SDS011;4926;42.670;23.316;2023-02-28T09:48:36;57.85;;;33.72;;
9773;SDS011;4926;42.670;23.316;2023-02-28T09:51:11;55.70;;;33.42;;
9773;SDS011;4926;42.670;23.316;2023-02-28T09:53:42;57.75;;;34.20;;
9773;SDS011;4926;42.670;23.316;2023-02-28T09:56:11;53.58;;;33.17;;
9773;SDS011;4926;42.670;23.316;2023-02-28T09:58:55;53.05;;;31.00;;
9773;SDS011;4926;42.670;23.316;2023-02-28T10:01:30;55.10;;;31.65;;
9773;SDS011;4926;42.670;23.316;2023-02-28T10:04:03;56.08;;;31.38;;
9773;SDS011;4926;42.670;23.316;2023-02-28T10:06:41;50.88;;;28.83;;
9773;SDS011;4926;42.670;23.316;2023-02-28T10:09:13;51.92;;;31.35;;
9773;SDS011;4926;42.670;23.316;2023-02-28T10:11:45;50.58;;;28.58;;
9773;SDS011;4926;42.670;23.316;2023-02-28T10:14:15;36.92;;;21.20;;
9773;SDS011;4926;42.670;23.316;2023-02-28T10:16:44;25.90;;;14.68;;
9773;SDS011;4926;42.670;23.316;2023-02-28T10:19:17;28.40;;;15.65;;
9773;SDS011;4926;42.670;23.316;2023-02-28T10:21:49;25.30;;;14.82;;
9773;SDS011;4926;42.670;23.316;2023-02-28T10:24:29;24.58;;;13.90;;
9773;SDS011;4926;42.670;23.316;2023-02-28T10:27:06;26.85;;;13.85;;
9773;SDS011;4926;42.670;23.316;2023-02-28T10:29:42;22.60;;;13.48;;
9773;SDS011;4926;42.670;23.316;2023-02-28T10:32:11;22.20;;;13.80;;
9773;SDS011;4926;42.670;23.316;2023-02-28T10:34:41;26.75;;;14.93;;
9773;SDS011;4926;42.670;23.316;2023-02-28T10:37:08;25.67;;;13.90;;
9773;SDS011;4926;42.670;23.316;2023-02-28T10:39:37;27.63;;;13.98;;
9773;SDS011;4926;42.670;23.316;2023-02-28T10:47:50;18.48;;;11.75;;
9773;SDS011;4926;42.670;23.316;2023-02-28T10:50:29;23.88;;;12.07;;
9773;SDS011;4926;42.670;23.316;2023-02-28T10:53:10;27.00;;;12.25;;
9773;SDS011;4926;42.670;23.316;2023-02-28T10:55:55;23.08;;;12.18;;
9773;SDS011;4926;42.670;23.316;2023-02-28T10:58:25;19.55;;;12.13;;
9773;SDS011;4926;42.670;23.316;2023-02-28T11:00:54;22.98;;;11.75;;
9773;SDS011;4926;42.670;23.316;2023-02-28T11:03:23;24.33;;;12.50;;
9773;SDS011;4926;42.670;23.316;2023-02-28T11:05:51;28.45;;;16.13;;
9773;SDS011;4926;42.670;23.316;2023-02-28T11:08:18;23.05;;;13.90;;
9773;SDS011;4926;42.670;23.316;2023-02-28T11:10:47;19.77;;;10.73;;
9773;SDS011;4926;42.670;23.316;2023-02-28T11:13:20;20.42;;;11.77;;
9773;SDS011;4926;42.670;23.316;2023-02-28T11:15:51;24.13;;;12.35;;
9773;SDS011;4926;42.670;23.316;2023-02-28T11:18:24;21.70;;;12.10;;
9773;SDS011;4926;42.670;23.316;2023-02-28T11:20:55;20.98;;;12.63;;
9773;SDS011;4926;42.670;23.316;2023-02-28T11:23:25;20.67;;;11.38;;
9773;SDS011;4926;42.670;23.316;2023-02-28T11:25:56;22.90;;;12.55;;
9773;SDS011;4926;42.670;23.316;2023-02-28T11:28:35;27.65;;;13.02;;
9773;SDS011;4926;42.670;23.316;2023-02-28T11:31:05;22.02;;;12.82;;
9773;SDS011;4926;42.670;23.316;2023-02-28T11:33:42;21.77;;;11.77;;
9773;SDS011;4926;42.670;23.316;2023-02-28T11:36:11;26.98;;;12.88;;
9773;SDS011;4926;42.670;23.316;2023-02-28T11:38:39;18.27;;;12.10;;
9773;SDS011;4926;42.670;23.316;2023-02-28T11:41:11;22.50;;;12.82;;
9773;SDS011;4926;42.670;23.316;2023-02-28T11:46:56;29.08;;;13.68;;
9773;SDS011;4926;42.670;23.316;2023-02-28T11:49:30;26.80;;;14.05;;
9773;SDS011;4926;42.670;23.316;2023-02-28T11:52:05;21.60;;;14.13;;
9773;SDS011;4926;42.670;23.316;2023-02-28T11:54:47;23.70;;;13.18;;
9773;SDS011;4926;42.670;23.316;2023-02-28T11:57:29;26.88;;;13.32;;
9773;SDS011;4926;42.670;23.316;2023-02-28T12:00:03;16.73;;;10.73;;
9773;SDS011;4926;42.670;23.316;2023-02-28T12:02:59;21.58;;;11.80;;
9773;SDS011;4926;42.670;23.316;2023-02-28T12:05:38;25.95;;;13.23;;
9773;SDS011;4926;42.670;23.316;2023-02-28T12:08:15;25.45;;;14.85;;
9773;SDS011;4926;42.670;23.316;2023-02-28T12:10:56;22.65;;;13.30;;
9773;SDS011;4926;42.670;23.316;2023-02-28T12:13:34;24.17;;;11.55;;
9773;SDS011;4926;42.670;23.316;2023-02-28T12:16:18;29.52;;;14.40;;
9773;SDS011;4926;42.670;23.316;2023-02-28T12:18:59;23.52;;;13.75;;
9773;SDS011;4926;42.670;23.316;2023-02-28T12:21:36;24.70;;;12.55;;
9773;SDS011;4926;42.670;23.316;2023-02-28T12:24:20;20.95;;;13.73;;
9773;SDS011;4926;42.670;23.316;2023-02-28T12:26:57;24.63;;;12.75;;
9773;SDS011;4926;42.670;23.316;2023-02-28T12:29:29;23.33;;;14.07;;
9773;SDS011;4926;42.670;23.316;2023-02-28T12:32:00;22.73;;;12.95;;
9773;SDS011;4926;42.670;23.316;2023-02-28T12:34:33;21.08;;;13.10;;
9773;SDS011;4926;42.670;23.316;2023-02-28T12:37:05;22.88;;;12.57;;
9773;SDS011;4926;42.670;23.316;2023-02-28T12:39:37;21.08;;;13.48;;
9773;SDS011;4926;42.670;23.316;2023-02-28T12:42:10;22.70;;;13.98;;
9773;SDS011;4926;42.670;23.316;2023-02-28T12:44:40;20.33;;;12.65;;
9773;SDS011;4926;42.670;23.316;2023-02-28T12:47:13;24.23;;;12.10;;
9773;SDS011;4926;42.670;23.316;2023-02-28T12:49:45;22.02;;;12.57;;
9773;SDS011;4926;42.670;23.316;2023-02-28T12:52:22;30.73;;;13.30;;
9773;SDS011;4926;42.670;23.316;2023-02-28T12:54:59;24.17;;;13.68;;
9773;SDS011;4926;42.670;23.316;2023-02-28T12:57:31;22.38;;;12.48;;
9773;SDS011;4926;42.670;23.316;2023-02-28T13:00:09;22.38;;;12.65;;
9773;SDS011;4926;42.670;23.316;2023-02-28T13:05:58;21.73;;;11.88;;
9773;SDS011;4926;42.670;23.316;2023-02-28T13:08:58;23.45;;;12.50;;
9773;SDS011;4926;42.670;23.316;2023-02-28T13:11:29;23.13;;;12.68;;
9773;SDS011;4926;42.670;23.316;2023-02-28T13:13:58;21.05;;;11.90;;
9773;SDS011;4926;42.670;23.316;2023-02-28T13:16:27;28.13;;;12.50;;
9773;SDS011;4926;42.670;23.316;2023-02-28T13:19:07;21.55;;;12.00;;
9773;SDS011;4926;42.670;23.316;2023-02-28T13:21:43;19.85;;;12.45;;
9773;SDS011;4926;42.670;23.316;2023-02-28T13:24:11;22.70;;;11.85;;
9773;SDS011;4926;42.670;23.316;2023-02-28T13:29:57;24.75;;;11.63;;
9773;SDS011;4926;42.670;23.316;2023-02-28T13:44:12;22.58;;;10.18;;
9773;SDS011;4926;42.670;23.316;2023-02-28T13:49:47;15.43;;;9.65;;
9773;SDS011;4926;42.670;23.316;2023-02-28T13:52:16;22.50;;;12.55;;
9773;SDS011;4926;42.670;23.316;2023-02-28T13:54:56;18.30;;;9.48;;
9773;SDS011;4926;42.670;23.316;2023-02-28T13:57:47;25.20;;;12.32;;
9773;SDS011;4926;42.670;23.316;2023-02-28T14:00:26;22.08;;;9.57;;
9773;SDS011;4926;42.670;23.316;2023-02-28T14:03:09;15.48;;;9.52;;
9773;SDS011;4926;42.670;23.316;2023-02-28T14:05:44;19.20;;;9.77;;
9773;SDS011;4926;42.670;23.316;2023-02-28T14:08:13;20.40;;;10.40;;
9773;SDS011;4926;42.670;23.316;2023-02-28T14:10:44;21.73;;;10.80;;
9773;SDS011;4926;42.670;23.316;2023-02-28T14:16:09;19.88;;;10.27;;
9773;SDS011;4926;42.670;23.316;2023-02-28T14:18:37;18.83;;;10.23;;
9773;SDS011;4926;42.670;23.316;2023-02-28T14:21:11;21.30;;;11.02;;
9773;SDS011;4926;42.670;23.316;2023-02-28T14:24:00;15.85;;;10.15;;
9773;SDS011;4926;42.670;23.316;2023-02-28T14:29:47;33.00;;;11.43;;
9773;SDS011;4926;42.670;23.316;2023-02-28T14:32:35;19.80;;;9.95;;
9773;SDS011;4926;42.670;23.316;2023-02-28T14:35:12;21.23;;;10.50;;
9773;SDS011;4926;42.670;23.316;2023-02-28T14:37:52;22.30;;;11.00;;
9773;SDS011;4926;42.670;23.316;2023-02-28T14:40:21;19.23;;;8.20;;
9773;SDS011;4926;42.670;23.316;2023-02-28T14:42:54;19.15;;;10.50;;
9773;SDS011;4926;42.670;23.316;2023-02-28T14:45:24;19.17;;;10.50;;
9773;SDS011;4926;42.670;23.316;2023-02-28T14:47:55;17.20;;;10.43;;
9773;SDS011;4926;42.670;23.316;2023-02-28T14:50:26;20.45;;;9.73;;
9773;SDS011;4926;42.670;23.316;2023-02-28T14:52:56;22.65;;;11.00;;
9773;SDS011;4926;42.670;23.316;2023-02-28T14:55:28;19.67;;;10.13;;
9773;SDS011;4926;42.670;23.316;2023-02-28T14:57:59;21.48;;;10.63;;
9773;SDS011;4926;42.670;23.316;2023-02-28T15:00:30;19.52;;;10.00;;
9773;SDS011;4926;42.670;23.316;2023-02-28T15:02:58;19.65;;;11.50;;
9773;SDS011;4926;42.670;23.316;2023-02-28T15:05:44;19.38;;;10.52;;
9773;SDS011;4926;42.670;23.316;2023-02-28T15:08:17;19.17;;;10.02;;
9773;SDS011;4926;42.670;23.316;2023-02-28T15:10:45;19.05;;;10.68;;
9773;SDS011;4926;42.670;23.316;2023-02-28T15:13:18;28.42;;;14.15;;
9773;SDS011;4926;42.670;23.316;2023-02-28T15:15:49;24.42;;;11.70;;
9773;SDS011;4926;42.670;23.316;2023-02-28T15:18:25;17.83;;;9.38;;
9773;SDS011;4926;42.670;23.316;2023-02-28T15:21:01;16.65;;;9.82;;
9773;SDS011;4926;42.670;23.316;2023-02-28T15:23:30;23.92;;;10.68;;
9773;SDS011;4926;42.670;23.316;2023-02-28T15:25:57;23.35;;;11.02;;
9773;SDS011;4926;42.670;23.316;2023-02-28T15:28:28;16.50;;;10.75;;
9773;SDS011;4926;42.670;23.316;2023-02-28T15:30:59;18.40;;;10.02;;
9773;SDS011;4926;42.670;23.316;2023-02-28T15:33:28;24.60;;;10.43;;
9773;SDS011;4926;42.670;23.316;2023-02-28T15:36:09;18.90;;;9.65;;
9773;SDS011;4926;42.670;23.316;2023-02-28T15:38:39;19.35;;;9.88;;
9773;SDS011;4926;42.670;23.316;2023-02-28T15:41:20;17.98;;;9.85;;
9773;SDS011;4926;42.670;23.316;2023-02-28T15:43:49;17.05;;;8.50;;
9773;SDS011;4926;42.670;23.316;2023-02-28T15:46:55;17.27;;;9.70;;
9773;SDS011;4926;42.670;23.316;2023-02-28T15:49:27;20.63;;;9.73;;
9773;SDS011;4926;42.670;23.316;2023-02-28T15:51:57;14.02;;;9.00;;